NCAR-RAP Real-Time Weather Data

Output produced by METARs form (01 December 2020  17:25 UTC)
found at http://weather.rap.ucar.edu/surface/
 
KLNK 011654Z 14007KT 10SM CLR 03/M07 A3003 RMK AO2 SLP179 T00331072
KLNK 011554Z 00000KT 10SM CLR M01/M07 A3003 RMK AO2 SLP181 T10061072 $
KLNK 011454Z 34004KT 10SM CLR M04/M09 A3002 RMK AO2 SLP182 T10441089 53006 $
KLNK 011354Z 00000KT 10SM CLR M09/M13 A2999 RMK AO2 SLP173 T10941128
KLNK 011254Z 00000KT 10SM CLR M09/M13 A3000 RMK AO2 SLP176 T10891128
KLNK 011154Z 00000KT 10SM CLR M08/M12 A3000 RMK AO2 SLP176 T10831117 11033 21083 55006
KLNK 011054Z AUTO 00000KT 10SM CLR M06/M11 A3000 RMK AO2 SLP172 T10611111
KLNK 010954Z AUTO 19003KT 10SM CLR M04/M11 A3002 RMK AO2 SLP177 T10441106
KLNK 010854Z AUTO 19004KT 10SM CLR M04/M11 A3002 RMK AO2 SLP177 T10441106 56014
KLNK 010754Z AUTO 14004KT 10SM CLR M06/M11 A3002 RMK AO2 SLP178 T10611106
KLNK 010654Z AUTO 00000KT 10SM CLR M03/M11 A3005 RMK AO2 SLP187 T10331111
KLNK 010554Z AUTO 16003KT 10SM CLR M04/M11 A3007 RMK AO2 SLP194 T10391106 10006 21050 400721083 56008
KLNK 010454Z AUTO 15007KT 10SM CLR M04/M11 A3007 RMK AO2 SLP195 T10391106
KLNK 010354Z 16004KT 10SM CLR M03/M11 A3008 RMK AO2 SLP200 T10331106
KLNK 010254Z 16006KT 10SM CLR M02/M11 A3009 RMK AO2 SLP205 T10221106 58008